Startpagina
METAR-TAF:

METAR-TAF

Vliegvelden :

Tunis, Tunesië

Luchthaven Tunis-Carthage

breedte: 36-50N, lengte: 010-14E, hoogte: 3 m

Actueel weer

Dit bericht is 35 minuten geleden gemaakt, om 16:00 UTC
Wind 13 kt uit het oostzuidoosten, variërend tussen het oosten en het zuidzuidoosten
Temperatuur 21°C
Vochtigheid 64%
Druk 1012 hPa
Zicht 10 km of meer
Weinig wolken op 2600 ft

METAR: DTTA 251600Z 11013KT 080V150 9999 FEW026 21/14 Q1012 NOSIG

Tijdstip: 17:35 (16:35 UTC)

Verwachting

Dit bericht is 5 uur en het 35 minuten geleden gemaakt, om 11:00 UTC
Verwachting geldig van 25 om 12 UTC tot 26 om 12 UTC
Wind 15 kt uit het oostzuidoosten
Zicht 10 km of meer
Weinig wolken op 2600 ft
Wijzigt naar
van 25 om 22 UTC tot 25 om 24 UTC
Wind 10 kt uit het zuiden

TAF: DTTA 251100Z 2512/2612 11015KT 9999 FEW026 BECMG 2522/2524 17010KT

Waarnemingen en weersverwachtingen van meer dan 4000 vliegvelden (METAR en TAF).

De beschikbare stations zijn de gele en rode punten op de kaart.

Ga met uw muis naar het station om de naam te zien.

Klik dan om waarnemingen en weersverwachtingen te zien.

kaart wijzigen: klik op de groene knoppen met een zwart kruis om in te zoomen, op de groene knop met een streepje om uit te zoomen of op de groene pijlen voor aangrenzende kaarten.


METAR-TAF: